Covel, West Virginia
Current Conditions -  °F | °C
As of 1:52 PM on Tuesday 21 Oct 2014 (Local Time) from KBLF Reporting Station
Overcast Overcast  
Wind Chill: 54°   Ceiling: 5500
Heat Index: 54°   Visibility: 10mi
Dew Point: 40°   Wind: 15mph
Humidity: 59%   Direction: 280°W
Pressure: 29.95"   Gusts: 26mph
Location:  37.49°N, 81.32°W
Report Text: KBLF 211752Z AUTO 28013G23KT 10SM FEW021 OVC055 12/04 A2995 RMK AO2 SLP130 60000 T01220044 10128 20106 50002
Loading
Personal Weather Stations






























Interactive Weather Map
Tropical Storm Tracking
New forecast layout! Learn more

10-Day Weather Forecast

Advertisements
Track Severe Weather on mobile